createdAt,value
2018-10-11T00:00:01.179Z,11.30
2018-10-11T00:02:30.356Z,11.17
2018-10-11T00:04:59.679Z,10.70
2018-10-11T00:07:28.719Z,11.20
2018-10-11T00:09:57.769Z,11.60
2018-10-11T00:12:27.008Z,11.60
2018-10-11T00:14:56.163Z,10.83
2018-10-11T00:17:25.345Z,11.47
2018-10-11T00:19:54.815Z,11.83
2018-10-11T00:22:24.144Z,10.90
2018-10-11T00:24:53.504Z,10.80
2018-10-11T00:27:22.760Z,12.50
2018-10-11T00:29:51.831Z,11.03
2018-10-11T00:32:21.084Z,10.87
2018-10-11T00:34:50.259Z,11.20
2018-10-11T00:37:19.435Z,11.37
2018-10-11T00:39:48.483Z,13.27
2018-10-11T00:42:17.566Z,11.57
2018-10-11T00:44:46.873Z,13.33
2018-10-11T00:47:16.069Z,11.97
2018-10-11T00:49:45.237Z,11.40
2018-10-11T00:52:14.458Z,11.73
2018-10-11T00:54:43.708Z,11.47
2018-10-11T00:57:12.947Z,13.80
2018-10-11T00:59:42.199Z,11.87
2018-10-11T01:02:11.136Z,12.43
2018-10-11T01:04:40.576Z,12.27
2018-10-11T01:07:10.215Z,11.67
2018-10-11T01:09:39.596Z,12.70
2018-10-11T01:12:09.032Z,12.40
2018-10-11T01:14:38.212Z,10.40
2018-10-11T01:17:07.267Z,11.20
2018-10-11T01:19:36.515Z,13.57
2018-10-11T01:22:05.551Z,10.93
2018-10-11T01:24:34.891Z,11.50
2018-10-11T01:27:04.179Z,14.50
2018-10-11T01:29:33.291Z,12.63
2018-10-11T01:32:02.528Z,11.67
2018-10-11T01:34:31.767Z,14.43
2018-10-11T01:37:00.911Z,12.30
2018-10-11T01:39:29.836Z,12.43
2018-10-11T01:41:59.039Z,11.57
2018-10-11T01:44:28.511Z,11.83
2018-10-11T01:46:57.580Z,12.63
2018-10-11T01:49:26.911Z,12.27
2018-10-11T01:51:56.310Z,11.97
2018-10-11T01:54:25.604Z,14.33
2018-10-11T01:56:54.702Z,13.37
2018-10-11T01:59:23.610Z,12.80
2018-10-11T02:01:52.609Z,14.17
2018-10-11T02:04:21.680Z,12.97
2018-10-11T02:06:50.883Z,14.57
2018-10-11T02:09:19.805Z,13.67
2018-10-11T02:11:49.162Z,13.07
2018-10-11T02:14:18.263Z,14.60
2018-10-11T02:16:47.114Z,13.47
2018-10-11T02:19:16.263Z,13.23
2018-10-11T02:21:45.394Z,12.83
2018-10-11T02:24:14.797Z,13.33
2018-10-11T02:26:44.031Z,13.07
2018-10-11T02:29:12.852Z,15.23
2018-10-11T02:31:42.184Z,24.13
2018-10-11T02:34:11.560Z,24.27
2018-10-11T02:36:40.523Z,20.57
2018-10-11T02:39:10.673Z,20.33
2018-10-11T02:41:39.835Z,16.40
2018-10-11T02:44:09.035Z,14.63
2018-10-11T02:46:38.322Z,14.30
2018-10-11T02:49:07.532Z,13.97
2018-10-11T02:51:36.391Z,13.07
2018-10-11T02:54:06.752Z,12.83
2018-10-11T02:56:35.722Z,12.50
2018-10-11T02:59:15.491Z,12.27
2018-10-11T03:01:44.823Z,12.73
2018-10-11T03:04:14.328Z,12.37
2018-10-11T03:06:43.899Z,13.33
2018-10-11T03:09:13.299Z,14.30
2018-10-11T03:11:42.564Z,13.37
2018-10-11T03:14:11.883Z,13.13
2018-10-11T03:16:41.209Z,15.57
2018-10-11T03:19:10.275Z,13.50
2018-10-11T03:21:39.453Z,13.43
2018-10-11T03:24:08.640Z,13.43
2018-10-11T03:26:37.979Z,14.23
2018-10-11T03:29:06.879Z,15.67
2018-10-11T03:31:35.811Z,15.00
2018-10-11T03:34:04.906Z,15.43
2018-10-11T03:36:34.002Z,14.37
2018-10-11T03:39:03.451Z,15.07
2018-10-11T03:41:32.588Z,18.97
2018-10-11T03:44:01.900Z,16.20
2018-10-11T03:46:31.268Z,14.73
2018-10-11T03:49:00.484Z,15.13
2018-10-11T03:51:30.084Z,16.83
2018-10-11T03:53:59.082Z,15.83
2018-10-11T03:56:28.195Z,17.80
2018-10-11T03:58:57.647Z,15.77
2018-10-11T04:01:26.968Z,16.33
2018-10-11T04:03:56.831Z,20.33
2018-10-11T04:06:25.722Z,21.13
2018-10-11T04:08:55.287Z,18.43
2018-10-11T04:11:24.538Z,28.10
2018-10-11T04:13:53.711Z,22.43
2018-10-11T04:16:22.847Z,18.20
2018-10-11T04:18:52.000Z,16.47
2018-10-11T04:21:21.201Z,15.73
2018-10-11T04:23:50.499Z,20.23
2018-10-11T04:26:19.831Z,18.33
2018-10-11T04:28:49.100Z,19.43
2018-10-11T04:31:18.368Z,17.50
2018-10-11T04:33:47.464Z,18.67
2018-10-11T04:36:16.658Z,17.63
2018-10-11T04:38:45.557Z,19.10
2018-10-11T04:41:14.924Z,15.63
2018-10-11T04:43:44.111Z,15.50
2018-10-11T04:46:13.107Z,14.47
2018-10-11T04:48:42.391Z,14.10
2018-10-11T04:51:11.396Z,15.83
2018-10-11T04:53:40.629Z,14.93
2018-10-11T04:56:09.756Z,13.63
2018-10-11T04:58:38.750Z,14.77
2018-10-11T05:01:08.026Z,12.93
2018-10-11T05:03:37.358Z,16.50
2018-10-11T05:06:06.507Z,13.87
2018-10-11T05:08:36.127Z,13.93
2018-10-11T05:11:05.576Z,19.37
2018-10-11T05:13:41.411Z,13.27
2018-10-11T05:16:10.688Z,15.80
2018-10-11T05:18:41.110Z,12.90
2018-10-11T05:21:10.360Z,13.50
2018-10-11T05:23:40.085Z,12.23
2018-10-11T05:26:09.537Z,12.50
2018-10-11T05:28:38.448Z,13.23
2018-10-11T05:31:07.656Z,14.53
2018-10-11T05:33:36.868Z,12.43
2018-10-11T05:36:05.951Z,13.23
2018-10-11T05:38:35.179Z,18.60
2018-10-11T05:41:04.647Z,25.83
2018-10-11T05:43:33.776Z,40.13
2018-10-11T05:46:04.379Z,52.77
2018-10-11T05:48:34.323Z,50.20
2018-10-11T05:51:04.609Z,46.77
2018-10-11T05:53:33.917Z,24.00
2018-10-11T05:56:03.231Z,19.37
2018-10-11T05:58:32.520Z,14.43
2018-10-11T06:01:01.775Z,17.17
2018-10-11T06:03:30.953Z,16.70
2018-10-11T06:05:59.890Z,18.80
2018-10-11T06:08:29.027Z,14.33
2018-10-11T06:10:58.488Z,16.60
2018-10-11T06:13:27.693Z,15.00
2018-10-11T06:15:56.996Z,13.97
2018-10-11T06:18:26.256Z,14.77
2018-10-11T06:20:55.584Z,13.20
2018-10-11T06:23:24.504Z,13.63
2018-10-11T06:25:53.548Z,15.93
2018-10-11T06:28:22.976Z,16.47
2018-10-11T06:30:52.740Z,16.23
2018-10-11T06:33:22.179Z,18.50
2018-10-11T06:35:51.571Z,18.20
2018-10-11T06:38:20.719Z,16.67
2018-10-11T06:40:50.060Z,17.93
2018-10-11T06:43:19.264Z,18.17
2018-10-11T06:45:48.709Z,16.20
2018-10-11T06:48:18.085Z,14.37
2018-10-11T06:50:47.453Z,17.33
2018-10-11T06:53:16.724Z,19.00
2018-10-11T06:55:45.723Z,14.57
2018-10-11T06:58:14.664Z,14.33
2018-10-11T07:00:43.975Z,15.77
2018-10-11T07:03:12.807Z,16.23
2018-10-11T07:05:42.162Z,18.27
2018-10-11T07:08:11.068Z,15.67
2018-10-11T07:10:39.884Z,14.63
2018-10-11T07:13:09.072Z,15.00
2018-10-11T07:15:38.427Z,15.00
2018-10-11T07:18:07.682Z,14.73
2018-10-11T07:20:36.919Z,14.60
2018-10-11T07:23:06.241Z,21.60
2018-10-11T07:25:35.519Z,26.13
2018-10-11T07:28:04.731Z,17.77
2018-10-11T07:30:33.836Z,14.40
2018-10-11T07:33:03.124Z,13.83
2018-10-11T07:35:32.414Z,16.53
2018-10-11T07:38:01.320Z,19.17
2018-10-11T07:40:30.583Z,26.20
2018-10-11T07:42:59.855Z,20.90
2018-10-11T07:45:28.829Z,15.23
2018-10-11T07:47:58.120Z,14.37
2018-10-11T07:50:26.961Z,13.27
2018-10-11T07:52:56.147Z,12.93
2018-10-11T07:55:25.395Z,11.67
2018-10-11T07:57:54.576Z,11.47
2018-10-11T08:00:23.931Z,13.63
2018-10-11T08:02:53.279Z,12.87
2018-10-11T08:05:22.571Z,12.13
2018-10-11T08:07:51.628Z,12.40
2018-10-11T08:10:20.733Z,17.20
2018-10-11T08:12:49.773Z,12.73
2018-10-11T08:15:18.923Z,13.73
2018-10-11T08:17:48.400Z,12.57
2018-10-11T08:20:17.136Z,12.80
2018-10-11T08:22:46.261Z,13.60
2018-10-11T08:25:15.362Z,13.80
2018-10-11T08:27:44.396Z,12.60
2018-10-11T08:30:13.601Z,13.47
2018-10-11T08:32:43.010Z,15.23
2018-10-11T08:35:12.056Z,24.17
2018-10-11T08:37:41.324Z,24.97
2018-10-11T08:40:10.454Z,21.00
2018-10-11T08:42:39.600Z,16.17
2018-10-11T08:45:08.803Z,17.40
2018-10-11T08:47:38.040Z,21.97
2018-10-11T08:50:07.295Z,21.97
2018-10-11T08:52:36.512Z,20.73
2018-10-11T08:55:05.568Z,25.10
2018-10-11T08:57:34.766Z,28.80
2018-10-11T09:00:04.000Z,21.23
2018-10-11T09:02:33.224Z,22.87
2018-10-11T09:05:02.487Z,17.77
2018-10-11T09:07:31.368Z,15.73
2018-10-11T09:10:00.380Z,15.50
2018-10-11T09:12:29.555Z,16.23
2018-10-11T09:14:58.794Z,14.83
2018-10-11T09:17:28.055Z,14.53
2018-10-11T09:19:57.286Z,13.97
2018-10-11T09:22:26.296Z,19.60
2018-10-11T09:24:55.550Z,11.70
2018-10-11T09:27:24.692Z,11.90
2018-10-11T09:29:53.891Z,13.17
2018-10-11T09:32:22.916Z,12.43
2018-10-11T09:34:52.167Z,11.43
2018-10-11T09:37:21.647Z,15.40
2018-10-11T09:39:50.586Z,14.03
2018-10-11T09:42:19.923Z,13.53
2018-10-11T09:44:49.293Z,11.73
2018-10-11T09:47:18.622Z,12.90
2018-10-11T09:49:47.816Z,13.13
2018-10-11T09:52:17.088Z,12.93
2018-10-11T09:54:46.173Z,11.60
2018-10-11T09:57:20.296Z,12.20
2018-10-11T09:59:49.630Z,11.17
2018-10-11T10:02:18.514Z,11.93
2018-10-11T10:04:49.764Z,10.73
2018-10-11T10:07:18.731Z,14.87
2018-10-11T10:09:48.311Z,15.63
2018-10-11T10:12:17.811Z,13.67
2018-10-11T10:14:47.672Z,14.47
2018-10-11T10:17:16.927Z,13.40
2018-10-11T10:19:46.390Z,11.70
2018-10-11T10:22:15.820Z,12.47
2018-10-11T10:24:45.000Z,15.07
2018-10-11T10:27:14.452Z,12.43
2018-10-11T10:29:43.741Z,14.20
2018-10-11T10:32:12.781Z,13.40
2018-10-11T10:34:42.011Z,13.00
2018-10-11T10:37:11.368Z,11.97
2018-10-11T10:39:40.522Z,12.00
2018-10-11T10:42:09.734Z,11.67
2018-10-11T10:44:39.104Z,10.80
2018-10-11T10:47:08.447Z,10.50
2018-10-11T10:49:37.376Z,10.57
2018-10-11T10:52:06.735Z,11.20
2018-10-11T10:54:36.366Z,14.33
2018-10-11T10:57:06.179Z,12.20
2018-10-11T10:59:35.426Z,10.80
2018-10-11T11:02:04.724Z,12.37
2018-10-11T11:04:34.059Z,9.57
2018-10-11T11:07:03.363Z,10.33
2018-10-11T11:09:32.224Z,9.67
2018-10-11T11:12:01.407Z,10.50
2018-10-11T11:14:30.617Z,10.20
2018-10-11T11:16:59.760Z,9.17
2018-10-11T11:19:29.041Z,9.17
2018-10-11T11:21:58.379Z,10.03
2018-10-11T11:24:27.475Z,8.50
2018-10-11T11:26:56.466Z,8.50
2018-10-11T11:29:25.663Z,8.73
2018-10-11T11:31:54.911Z,10.07
2018-10-11T11:34:24.115Z,8.90
2018-10-11T11:36:53.380Z,9.53
2018-10-11T11:39:22.550Z,8.30
2018-10-11T11:41:51.510Z,8.07
2018-10-11T11:44:20.791Z,8.93
2018-10-11T11:46:50.112Z,9.33
2018-10-11T11:49:19.251Z,8.93
2018-10-11T11:51:48.299Z,10.30
2018-10-11T11:54:19.839Z,8.53
2018-10-11T11:56:49.396Z,8.50
2018-10-11T11:59:18.304Z,10.40
2018-10-11T12:01:47.491Z,7.53
2018-10-11T12:04:16.735Z,7.87
2018-10-11T12:06:45.815Z,9.27
2018-10-11T12:09:15.447Z,8.90
2018-10-11T12:11:44.736Z,6.72
2018-10-11T12:14:13.967Z,7.45
2018-10-11T12:16:43.196Z,7.72
2018-10-11T12:19:12.619Z,7.83
2018-10-11T12:21:42.066Z,8.00
2018-10-11T12:24:11.282Z,7.22
2018-10-11T12:26:40.515Z,7.30
2018-10-11T12:29:09.839Z,8.28
2018-10-11T12:31:39.141Z,9.17
2018-10-11T12:34:08.386Z,9.27
2018-10-11T12:36:37.658Z,7.67
2018-10-11T12:39:08.879Z,6.37
2018-10-11T12:41:38.040Z,7.80
2018-10-11T12:44:07.431Z,18.53
2018-10-11T12:46:38.164Z,23.27
2018-10-11T12:49:05.866Z,8.87
2018-10-11T12:51:34.868Z,9.30
2018-10-11T12:54:04.094Z,8.50
2018-10-11T12:56:33.061Z,11.73
2018-10-11T12:59:02.501Z,21.03
2018-10-11T13:01:31.713Z,18.73
2018-10-11T13:04:00.935Z,17.27
2018-10-11T13:06:30.112Z,14.87
2018-10-11T13:08:59.327Z,12.27
2018-10-11T13:11:28.743Z,13.53
2018-10-11T13:13:57.919Z,10.03
2018-10-11T13:16:27.347Z,11.30
2018-10-11T13:18:56.743Z,12.37
2018-10-11T13:21:25.723Z,12.20
2018-10-11T13:23:54.919Z,12.70
2018-10-11T13:26:23.987Z,13.80
2018-10-11T13:28:53.267Z,10.33
2018-10-11T13:31:22.396Z,10.03
2018-10-11T13:33:52.997Z,13.47
2018-10-11T13:36:21.015Z,10.07
2018-10-11T13:38:50.410Z,9.60
2018-10-11T13:41:19.732Z,14.80
2018-10-11T13:43:49.107Z,13.50
2018-10-11T13:46:18.412Z,10.63
2018-10-11T13:48:47.817Z,12.20
2018-10-11T13:51:17.018Z,9.63
2018-10-11T13:53:49.946Z,11.20
2018-10-11T13:56:15.510Z,12.67
2018-10-11T13:58:44.850Z,9.03
2018-10-11T14:01:14.253Z,12.83
2018-10-11T14:03:43.612Z,18.93
2018-10-11T14:06:12.910Z,20.00
2018-10-11T14:08:42.279Z,17.97
2018-10-11T14:11:11.309Z,27.30
2018-10-11T14:13:40.961Z,21.63
2018-10-11T14:16:10.053Z,20.20
2018-10-11T14:18:39.779Z,18.17
2018-10-11T14:21:09.938Z,15.20
2018-10-11T14:23:39.369Z,18.97
2018-10-11T14:26:09.071Z,11.13
2018-10-11T14:28:37.912Z,12.83
2018-10-11T14:31:07.168Z,10.00
2018-10-11T14:33:36.288Z,14.57
2018-10-11T14:36:05.631Z,12.97
2018-10-11T14:38:34.919Z,10.87
2018-10-11T14:41:03.851Z,10.70
2018-10-11T14:43:33.401Z,8.90
2018-10-11T14:46:02.752Z,7.47
2018-10-11T14:48:32.424Z,7.87
2018-10-11T14:51:02.347Z,9.90
2018-10-11T14:53:31.635Z,11.07
2018-10-11T14:56:00.834Z,11.17
2018-10-11T14:58:30.158Z,10.33
2018-10-11T15:00:59.278Z,10.10
2018-10-11T15:03:28.618Z,11.87
2018-10-11T15:05:57.932Z,13.00
2018-10-11T15:08:27.084Z,12.50
2018-10-11T15:10:56.224Z,13.60
2018-10-11T15:13:25.419Z,15.50
2018-10-11T15:15:54.726Z,13.30
2018-10-11T15:18:23.906Z,10.57
2018-10-11T15:20:53.576Z,14.80
2018-10-11T15:23:22.692Z,15.47
2018-10-11T15:25:51.890Z,15.47
2018-10-11T15:28:21.080Z,19.90
2018-10-11T15:30:50.159Z,15.50
2018-10-11T15:33:19.150Z,15.80
2018-10-11T15:35:48.225Z,16.83
2018-10-11T15:38:17.619Z,15.80
2018-10-11T15:40:46.778Z,16.00
2018-10-11T15:43:16.040Z,16.87
2018-10-11T15:45:45.340Z,13.50
2018-10-11T15:48:14.687Z,16.60
2018-10-11T15:50:43.848Z,15.97
2018-10-11T15:53:13.765Z,14.70
2018-10-11T15:55:43.012Z,14.20
2018-10-11T16:17:50.746Z,24.33
2018-10-11T16:20:20.142Z,21.03
2018-10-11T16:22:49.292Z,20.67
2018-10-11T16:25:18.409Z,17.63
2018-10-11T16:27:47.777Z,18.50
2018-10-11T16:30:19.903Z,19.83
2018-10-11T16:32:48.895Z,20.00
2018-10-11T16:35:18.039Z,20.70
2018-10-11T16:37:47.400Z,19.83
2018-10-11T16:40:16.471Z,17.10
2018-10-11T16:42:45.817Z,17.70
2018-10-11T16:45:14.875Z,19.57
2018-10-11T16:47:44.326Z,25.87
2018-10-11T16:50:13.925Z,22.13
2018-10-11T16:52:43.143Z,24.50
2018-10-11T16:55:12.455Z,27.73
2018-10-11T16:57:42.340Z,23.70
2018-10-11T17:00:11.387Z,21.60
2018-10-11T17:02:41.106Z,19.90
2018-10-11T17:05:10.508Z,19.13
2018-10-11T17:07:39.527Z,20.27
2018-10-11T17:10:08.873Z,14.53
2018-10-11T17:12:38.310Z,20.33
2018-10-11T17:15:08.785Z,17.37
2018-10-11T17:17:38.228Z,16.20
2018-10-11T17:20:07.642Z,18.30
2018-10-11T17:22:37.026Z,19.73
2018-10-11T17:25:05.991Z,19.63
2018-10-11T17:27:35.357Z,19.93
2018-10-11T17:30:04.440Z,23.37
2018-10-11T17:32:33.679Z,19.23
2018-10-11T17:35:03.103Z,19.83
2018-10-11T17:37:32.731Z,19.87
2018-10-11T17:40:02.187Z,18.60
2018-10-11T17:42:31.384Z,17.00
2018-10-11T17:45:00.299Z,19.20
2018-10-11T17:47:29.373Z,18.93
2018-10-11T17:49:58.374Z,26.17
2018-10-11T17:52:28.525Z,24.40
2018-10-11T17:54:58.646Z,17.63
2018-10-11T17:57:28.147Z,18.03
2018-10-11T17:59:58.085Z,16.80
2018-10-11T18:02:27.338Z,21.20
2018-10-11T18:04:56.720Z,20.10
2018-10-11T18:07:26.016Z,24.10
2018-10-11T18:09:55.309Z,23.67
2018-10-11T18:12:24.435Z,18.77
2018-10-11T18:14:53.756Z,16.90
2018-10-11T18:17:23.022Z,13.83
2018-10-11T18:19:52.775Z,14.83
2018-10-11T18:22:21.876Z,24.10
2018-10-11T18:24:51.152Z,15.57
2018-10-11T18:27:20.311Z,13.13
2018-10-11T18:29:49.555Z,19.97
2018-10-11T18:32:18.613Z,31.53
2018-10-11T18:34:47.950Z,28.17
2018-10-11T18:37:16.997Z,20.00
2018-10-11T18:39:46.342Z,20.67
2018-10-11T18:42:15.260Z,18.17
2018-10-11T18:44:44.939Z,22.20
2018-10-11T18:47:14.964Z,18.40
2018-10-11T18:49:44.311Z,18.30
2018-10-11T18:52:13.305Z,20.47
2018-10-11T18:54:42.491Z,17.37
2018-10-11T18:57:11.656Z,14.73
2018-10-11T18:59:41.009Z,15.50
2018-10-11T19:02:10.247Z,13.80
2018-10-11T19:04:39.342Z,10.97
2018-10-11T19:07:08.300Z,13.53
2018-10-11T19:09:37.524Z,17.33
2018-10-11T19:12:06.677Z,13.67
2018-10-11T19:14:35.803Z,14.40
2018-10-11T19:17:05.127Z,12.27
2018-10-11T19:19:34.463Z,11.30
2018-10-11T19:22:03.653Z,10.97
2018-10-11T19:24:33.164Z,10.73
2018-10-11T19:27:02.471Z,12.80
2018-10-11T19:29:31.495Z,14.33
2018-10-11T19:32:00.815Z,9.20
2018-10-11T19:34:30.195Z,9.10
2018-10-11T19:36:59.307Z,11.60
2018-10-11T19:39:28.397Z,8.17
2018-10-11T19:41:57.503Z,10.73
2018-10-11T19:44:26.772Z,7.97
2018-10-11T19:46:56.093Z,8.50
2018-10-11T19:49:25.284Z,8.20
2018-10-11T19:51:54.260Z,8.43
2018-10-11T19:54:23.620Z,8.27
2018-10-11T19:56:53.390Z,7.00
2018-10-11T19:59:22.446Z,8.20
2018-10-11T20:01:51.770Z,8.73
2018-10-11T20:04:20.868Z,9.40
2018-10-11T20:06:50.071Z,10.13
2018-10-11T20:09:19.324Z,9.37
2018-10-11T20:11:48.659Z,9.07
2018-10-11T20:14:17.771Z,13.00
2018-10-11T20:16:47.058Z,6.07
2018-10-11T20:19:16.306Z,7.83
2018-10-11T20:21:45.667Z,7.97
2018-10-11T20:24:14.654Z,8.93
2018-10-11T20:26:43.696Z,9.27
2018-10-11T20:29:12.835Z,11.90
2018-10-11T20:31:42.095Z,12.37
2018-10-11T20:34:11.198Z,13.77
2018-10-11T20:36:40.536Z,13.37
2018-10-11T20:39:10.483Z,16.03
2018-10-11T20:41:39.955Z,12.73
2018-10-11T20:44:09.032Z,19.83
2018-10-11T20:46:38.075Z,23.13
2018-10-11T20:49:07.435Z,19.53
2018-10-11T20:51:36.681Z,20.03
2018-10-11T20:54:06.030Z,16.67
2018-10-11T20:56:35.251Z,22.97
2018-10-11T20:59:04.395Z,19.53
2018-10-11T21:01:33.557Z,18.33
2018-10-11T21:04:02.658Z,15.67
2018-10-11T21:06:31.627Z,15.50
2018-10-11T21:09:00.968Z,13.20
2018-10-11T21:11:30.380Z,14.13
2018-10-11T21:13:59.817Z,12.97
2018-10-11T21:16:29.022Z,13.60
2018-10-11T21:18:58.419Z,11.93
2018-10-11T21:21:27.572Z,11.70
2018-10-11T21:23:56.609Z,10.70
2018-10-11T21:26:25.863Z,11.20
2018-10-11T21:28:55.239Z,9.73
2018-10-11T21:31:24.463Z,8.03
2018-10-11T21:33:53.871Z,8.37
2018-10-11T21:36:22.963Z,9.20
2018-10-11T21:38:51.885Z,7.73
2018-10-11T21:41:21.184Z,9.10
2018-10-11T21:43:50.548Z,8.50
2018-10-11T21:46:19.718Z,7.93
2018-10-11T21:48:48.979Z,9.43
2018-10-11T21:51:18.123Z,12.07
2018-10-11T21:53:47.590Z,10.90
2018-10-11T21:56:16.923Z,9.03
2018-10-11T21:58:46.276Z,8.27
2018-10-11T22:01:20.516Z,8.97
2018-10-11T22:03:49.600Z,10.30
2018-10-11T22:06:18.994Z,7.97
2018-10-11T22:08:48.419Z,8.57
2018-10-11T22:11:17.548Z,8.37
2018-10-11T22:13:46.897Z,10.30
2018-10-11T22:16:16.103Z,8.40
2018-10-11T22:18:45.187Z,9.13
2018-10-11T22:21:14.183Z,10.80
2018-10-11T22:23:44.046Z,7.73
2018-10-11T22:26:13.499Z,11.03
2018-10-11T22:28:42.707Z,11.03
2018-10-11T22:31:13.415Z,8.40
2018-10-11T22:33:43.047Z,6.83
2018-10-11T22:36:13.206Z,8.77
2018-10-11T22:38:42.660Z,11.80
2018-10-11T22:41:12.675Z,9.30
2018-10-11T22:43:42.586Z,10.43
2018-10-11T22:46:12.444Z,9.77
2018-10-11T22:48:41.943Z,9.83
2018-10-11T22:51:11.667Z,9.00
2018-10-11T22:53:41.008Z,9.57
2018-10-11T22:56:10.280Z,10.43
2018-10-11T22:58:43.361Z,7.63
2018-10-11T23:01:12.893Z,8.30
2018-10-11T23:03:42.008Z,10.17
2018-10-11T23:06:10.803Z,9.60
2018-10-11T23:08:39.860Z,9.33
2018-10-11T23:11:09.389Z,12.83
2018-10-11T23:13:38.718Z,10.33
2018-10-11T23:16:08.111Z,12.10
2018-10-11T23:18:37.582Z,13.23
2018-10-11T23:21:06.826Z,11.63
2018-10-11T23:23:36.406Z,11.87
2018-10-11T23:26:05.595Z,17.07
2018-10-11T23:28:34.527Z,12.40
2018-10-11T23:31:03.731Z,11.93
2018-10-11T23:33:33.028Z,17.00
2018-10-11T23:36:02.119Z,12.50
2018-10-11T23:38:31.271Z,17.10
2018-10-11T23:41:00.319Z,15.17
2018-10-11T23:43:29.435Z,17.53
2018-10-11T23:45:58.554Z,18.17
2018-10-11T23:48:27.551Z,16.73
2018-10-11T23:50:56.743Z,14.77
2018-10-11T23:53:25.762Z,20.37
2018-10-11T23:55:54.983Z,14.30
2018-10-11T23:58:24.422Z,15.07
